Time;durP1;ratioP1;P1;durP2;ratioP2;P2;SDS_P1;SDS_P2;PMS_P1;PMS_P2;Temp;Humidity;BMP_temperature;BMP_pressure;BME280_temperature;BME280_humidity;BME280_pressure;Samples;Min_cycle;Max_cycle;Signal;HPM_P1;HPM_P2
2023/06/06 00:00:17;;;;;;;7.18;2.70;;;;;;;13.67;30.92;95736.00;4923118;29;20051;-74
2023/06/06 00:02:43;;;;;;;3.47;2.53;;;;;;;13.68;31.23;95736.84;4923703;29;20141;-74
2023/06/06 00:05:11;;;;;;;4.72;2.65;;;;;;;13.65;31.41;95735.38;4924042;29;20032;-74
2023/06/06 00:07:37;;;;;;;3.35;2.42;;;;;;;13.65;30.92;95739.88;4929063;29;20094;-74
2023/06/06 00:10:03;;;;;;;3.65;2.72;;;;;;;13.68;31.06;95739.50;4907605;29;20035;-74
2023/06/06 00:12:32;;;;;;;4.22;2.58;;;;;;;13.58;31.44;95734.50;4928987;29;20043;-74
2023/06/06 00:14:59;;;;;;;4.20;2.60;;;;;;;13.48;31.03;95744.69;4922861;29;20111;-74
2023/06/06 00:17:25;;;;;;;6.10;2.90;;;;;;;13.40;31.38;95733.09;4925534;29;20077;-74
2023/06/06 00:19:53;;;;;;;4.45;3.20;;;;;;;13.41;31.31;95736.63;4923747;29;20043;-74
2023/06/06 00:22:22;;;;;;;4.68;3.60;;;;;;;13.39;31.26;95735.97;4923548;29;20043;-74
2023/06/06 00:24:48;;;;;;;3.08;2.50;;;;;;;13.37;31.19;95730.84;4913338;29;20067;-73
2023/06/06 00:27:13;;;;;;;3.58;2.67;;;;;;;13.34;31.30;95730.38;4923318;29;20403;-74
2023/06/06 00:29:39;;;;;;;4.35;2.72;;;;;;;13.25;31.57;95732.38;4923830;29;20066;-74
2023/06/06 00:32:04;;;;;;;5.70;3.97;;;;;;;13.11;31.78;95731.41;4907421;29;20036;-74
2023/06/06 00:34:30;;;;;;;4.28;2.70;;;;;;;12.91;32.47;95735.53;4907984;29;20111;-74
2023/06/06 00:36:56;;;;;;;3.97;2.75;;;;;;;12.99;32.00;95729.25;4923597;29;20028;-74
2023/06/06 00:39:21;;;;;;;4.90;3.60;;;;;;;12.96;31.91;95728.78;4923163;29;20048;-74
2023/06/06 00:41:48;;;;;;;3.25;2.60;;;;;;;12.95;31.89;95732.47;4923932;29;20023;-74
2023/06/06 00:44:13;;;;;;;4.38;2.50;;;;;;;12.92;32.51;95729.16;4922949;29;20359;-74
2023/06/06 00:46:39;;;;;;;5.35;2.67;;;;;;;12.98;32.27;95737.47;4911370;29;20340;-74
2023/06/06 00:49:04;;;;;;;6.00;3.95;;;;;;;12.91;31.97;95732.03;4930696;29;20648;-74
2023/06/06 00:51:30;;;;;;;3.83;2.60;;;;;;;12.87;31.95;95736.94;4915030;29;20644;-74
2023/06/06 00:53:56;;;;;;;5.88;3.10;;;;;;;12.74;32.65;95742.13;4914035;29;20094;-74
2023/06/06 00:56:22;;;;;;;5.47;3.75;;;;;;;12.50;33.63;95739.59;4891650;29;20043;-74
2023/06/06 00:58:47;;;;;;;6.80;3.20;;;;;;;11.94;34.59;95738.25;4913749;29;20032;-74
2023/06/06 01:01:13;;;;;;;8.23;4.65;;;;;;;12.03;34.75;95734.47;4923669;29;20103;-74
2023/06/06 01:03:40;;;;;;;5.60;3.15;;;;;;;12.32;33.39;95740.00;4916066;29;20044;-74
2023/06/06 01:06:06;;;;;;;4.65;2.72;;;;;;;12.62;32.69;95744.47;4913202;29;20047;-74
2023/06/06 01:08:32;;;;;;;4.63;2.60;;;;;;;12.78;32.21;95744.22;4922667;29;20130;-74
2023/06/06 01:11:06;;;;;;;5.13;2.55;;;;;;;12.83;32.07;95743.66;4922934;29;20435;-74
2023/06/06 01:14:11;;;;;;;6.28;2.65;;;;;;;12.74;32.12;95742.13;4915683;29;20059;-74
2023/06/06 01:16:37;;;;;;;6.93;4.18;;;;;;;12.65;32.95;95739.56;4911635;29;20577;-74
2023/06/06 01:19:04;;;;;;;5.03;2.90;;;;;;;12.26;34.31;95741.56;4900496;29;20388;-74
2023/06/06 01:21:42;;;;;;;3.60;2.80;;;;;;;12.19;34.00;95734.47;4894807;29;20533;-74
2023/06/06 01:24:08;;;;;;;5.50;3.55;;;;;;;12.15;34.17;95736.72;4900676;29;20043;-74
2023/06/06 01:26:33;;;;;;;4.18;2.85;;;;;;;12.41;32.90;95732.72;4909707;29;20039;-74
2023/06/06 01:28:59;;;;;;;4.90;2.60;;;;;;;12.56;32.46;95732.69;4916419;29;20380;-74
2023/06/06 01:31:24;;;;;;;5.85;4.13;;;;;;;12.60;32.52;95731.28;4922069;29;20902;-74
2023/06/06 01:33:54;;;;;;;4.53;2.83;;;;;;;12.62;32.64;95723.91;4923609;29;20024;-74
2023/06/06 01:36:50;;;;;;;3.67;2.60;;;;;;;12.54;32.54;95726.69;4910007;29;20059;-74
2023/06/06 01:39:18;;;;;;;4.90;2.30;;;;;;;12.60;31.90;95725.97;4898336;29;20132;-74
2023/06/06 01:41:45;;;;;;;5.50;2.70;;;;;;;12.63;31.80;95722.06;4923047;29;20098;-74
2023/06/06 01:44:11;;;;;;;5.40;3.70;;;;;;;12.53;32.26;95733.06;4921579;29;20108;-74
2023/06/06 01:46:36;;;;;;;4.43;3.50;;;;;;;12.22;34.41;95728.78;4889668;29;20119;-74
2023/06/06 01:49:01;;;;;;;7.57;4.13;;;;;;;12.17;33.59;95728.53;4923402;29;20039;-73
2023/06/06 01:51:27;;;;;;;4.82;3.50;;;;;;;12.10;33.84;95731.91;4911149;29;20411;-74
2023/06/06 01:53:53;;;;;;;5.53;3.30;;;;;;;11.88;34.73;95729.16;4933797;29;20040;-74
2023/06/06 01:56:19;;;;;;;2.63;2.42;;;;;;;11.92;33.73;95734.09;4922365;29;20448;-73
2023/06/06 01:58:44;;;;;;;4.82;2.72;;;;;;;12.14;33.06;95735.88;4926293;29;20046;-73
2023/06/06 02:01:10;;;;;;;4.15;3.25;;;;;;;12.17;33.16;95731.19;4922797;29;20040;-73
2023/06/06 02:03:36;;;;;;;5.57;2.65;;;;;;;12.02;33.44;95730.16;4917628;29;20036;-73
2023/06/06 02:06:03;;;;;;;5.65;3.58;;;;;;;12.08;33.78;95733.13;4911272;29;20127;-74
2023/06/06 02:08:29;;;;;;;7.18;4.10;;;;;;;12.02;34.76;95731.97;4918245;29;20467;-73
2023/06/06 02:10:55;;;;;;;5.90;3.20;;;;;;;11.81;34.45;95732.72;4925096;29;20043;-73
2023/06/06 02:13:21;;;;;;;8.48;4.00;;;;;;;11.85;34.41;95734.00;4920440;29;20063;-73
2023/06/06 02:15:46;;;;;;;4.90;2.75;;;;;;;11.93;34.34;95725.91;4925473;29;20032;-73
2023/06/06 02:18:11;;;;;;;3.17;2.88;;;;;;;11.97;33.51;95731.72;4926352;29;20028;-73
2023/06/06 02:20:37;;;;;;;5.13;2.70;;;;;;;12.15;32.87;95739.38;4925722;29;20311;-74
2023/06/06 02:23:02;;;;;;;3.42;2.53;;;;;;;12.23;32.55;95741.94;4925889;29;20046;-73
2023/06/06 02:25:28;;;;;;;5.38;3.78;;;;;;;12.19;33.32;95745.16;4925603;29;20506;-73
2023/06/06 02:27:53;;;;;;;8.00;4.03;;;;;;;12.23;33.73;95738.44;4925131;29;20059;-73
2023/06/06 02:30:19;;;;;;;6.90;4.10;;;;;;;12.11;33.37;95733.56;4925567;29;20406;-74
2023/06/06 02:32:45;;;;;;;5.15;2.90;;;;;;;12.19;33.25;95737.16;4934344;29;20032;-73
2023/06/06 02:35:10;;;;;;;6.53;2.75;;;;;;;12.28;32.68;95738.72;4925168;29;20247;-73
2023/06/06 02:37:36;;;;;;;5.18;2.40;;;;;;;12.40;32.29;95731.88;4913006;29;20222;-73
2023/06/06 02:40:08;;;;;;;6.97;2.92;;;;;;;12.50;32.07;95733.44;4924919;29;20032;-73
2023/06/06 02:42:34;;;;;;;5.47;2.80;;;;;;;12.55;31.65;95736.38;4913555;29;20047;-73
2023/06/06 02:45:00;;;;;;;5.47;3.25;;;;;;;12.48;32.99;95732.81;4926438;29;20036;-73
2023/06/06 02:47:26;;;;;;;4.20;3.40;;;;;;;12.38;33.98;95733.09;4925006;29;20369;-74
2023/06/06 02:49:51;;;;;;;4.95;3.22;;;;;;;12.39;33.79;95729.41;4917323;29;20028;-73
2023/06/06 02:52:16;;;;;;;6.32;3.20;;;;;;;12.49;32.31;95732.63;4925214;29;20110;-73
2023/06/06 02:54:42;;;;;;;5.00;2.60;;;;;;;12.71;31.57;95737.97;4916711;29;20032;-73
2023/06/06 02:57:07;;;;;;;3.28;2.72;;;;;;;12.63;31.72;95736.28;4914120;29;20086;-73
2023/06/06 02:59:33;;;;;;;4.70;2.92;;;;;;;12.72;31.50;95726.28;4925333;29;20091;-73
2023/06/06 03:01:58;;;;;;;3.35;3.00;;;;;;;12.76;31.34;95732.09;4924594;29;20028;-73
2023/06/06 03:04:24;;;;;;;6.18;2.90;;;;;;;12.76;31.44;95740.94;4924470;29;20040;-73
2023/06/06 03:06:50;;;;;;;4.30;2.90;;;;;;;12.70;32.14;95738.16;4925026;29;20043;-73
2023/06/06 03:09:15;;;;;;;3.00;2.70;;;;;;;12.62;31.85;95737.25;4924436;29;20495;-73
2023/06/06 03:11:40;;;;;;;3.33;2.53;;;;;;;12.65;31.68;95739.56;4933793;29;20114;-73
2023/06/06 03:14:07;;;;;;;5.03;2.50;;;;;;;12.61;31.97;95738.28;4924990;29;20039;-73
2023/06/06 03:16:34;;;;;;;2.72;2.53;;;;;;;12.51;32.08;95732.44;4924562;29;20060;-73
2023/06/06 03:19:00;;;;;;;5.57;2.40;;;;;;;12.37;32.54;95737.59;4923642;29;20421;-74
2023/06/06 03:21:25;;;;;;;4.50;2.50;;;;;;;12.36;32.56;95741.28;4924988;29;20047;-73
2023/06/06 03:23:51;;;;;;;3.72;2.38;;;;;;;12.47;32.14;95736.47;4923701;29;20051;-74
2023/06/06 03:26:16;;;;;;;3.50;2.50;;;;;;;12.50;32.04;95738.78;4933595;29;20678;-73
2023/06/06 03:28:41;;;;;;;3.38;2.50;;;;;;;12.50;32.31;95738.78;4912815;29;20044;-73
2023/06/06 03:31:10;;;;;;;2.67;2.40;;;;;;;12.46;32.20;95742.81;4924719;29;20044;-73
2023/06/06 03:33:36;;;;;;;4.10;2.75;;;;;;;12.38;32.13;95747.25;4902501;29;20026;-74
2023/06/06 03:36:03;;;;;;;4.35;2.80;;;;;;;12.34;32.19;95751.31;4917383;29;20043;-74
2023/06/06 03:38:28;;;;;;;5.53;2.65;;;;;;;12.20;32.62;95752.97;4931496;29;20455;-74
2023/06/06 03:40:54;;;;;;;4.88;2.40;;;;;;;12.15;32.57;95750.91;4918137;29;20035;-74
2023/06/06 03:43:19;;;;;;;6.18;2.60;;;;;;;12.26;32.30;95752.25;4901247;29;20031;-73
2023/06/06 03:45:45;;;;;;;3.67;2.47;;;;;;;12.29;32.01;95751.06;4913882;29;20039;-73
2023/06/06 03:48:10;;;;;;;2.97;2.53;;;;;;;12.31;32.19;95754.38;4917722;29;20357;-74
2023/06/06 03:50:36;;;;;;;3.00;2.50;;;;;;;12.31;32.31;95753.53;4917900;29;20042;-74
2023/06/06 03:53:01;;;;;;;5.72;2.42;;;;;;;12.31;32.78;95749.03;4924019;29;20356;-74
2023/06/06 03:55:28;;;;;;;5.25;2.80;;;;;;;12.35;32.42;95747.66;4924097;29;20062;-73
2023/06/06 03:57:54;;;;;;;3.08;2.63;;;;;;;12.43;31.80;95744.03;4924202;29;20035;-74
2023/06/06 04:00:19;;;;;;;4.80;2.67;;;;;;;12.40;32.24;95749.75;4919214;29;20065;-74
2023/06/06 04:02:46;;;;;;;5.63;2.60;;;;;;;12.48;32.29;95754.97;4923466;29;20509;-74
2023/06/06 04:05:12;;;;;;;3.30;2.85;;;;;;;12.48;32.24;95754.16;4924109;29;20495;-73
2023/06/06 04:07:37;;;;;;;3.50;2.50;;;;;;;12.54;32.89;95750.72;4923136;29;20095;-73
2023/06/06 04:10:03;;;;;;;5.22;2.50;;;;;;;12.54;32.66;95746.22;4907659;29;20040;-73
2023/06/06 04:12:28;;;;;;;3.45;2.60;;;;;;;12.58;32.39;95752.00;4888109;29;20346;-73
2023/06/06 04:14:54;;;;;;;4.70;2.58;;;;;;;12.56;32.60;95751.38;4923336;29;20036;-73
2023/06/06 04:17:20;;;;;;;6.22;2.80;;;;;;;12.58;32.47;95749.34;4924081;29;20055;-73
2023/06/06 04:19:47;;;;;;;4.47;2.55;;;;;;;12.67;32.36;95761.59;4923228;29;20490;-73
2023/06/06 04:22:13;;;;;;;3.17;2.40;;;;;;;12.82;32.02;95757.22;4923456;29;20039;-73
2023/06/06 04:24:38;;;;;;;3.55;2.50;;;;;;;12.87;32.20;95754.78;4923537;29;20829;-73
2023/06/06 04:27:04;;;;;;;5.95;2.80;;;;;;;13.00;32.00;95752.31;4923352;29;20043;-73
2023/06/06 04:29:37;;;;;;;3.25;2.33;;;;;;;13.03;31.84;95754.56;4923906;29;20036;-73
2023/06/06 04:32:03;;;;;;;3.55;2.47;;;;;;;12.98;32.02;95758.84;4931831;29;20135;-73
2023/06/06 04:34:31;;;;;;;4.15;2.47;;;;;;;13.25;31.29;95743.06;4911214;29;20020;-74
2023/06/06 04:37:03;;;;;;;4.05;2.80;;;;;;;13.43;31.50;95751.44;4923748;29;20104;-73
2023/06/06 04:39:29;;;;;;;3.75;2.28;;;;;;;13.58;30.76;95753.22;4920000;29;20123;-73
2023/06/06 04:41:56;;;;;;;3.10;2.55;;;;;;;13.82;30.92;95753.81;4904640;29;20028;-73
2023/06/06 04:44:23;;;;;;;5.55;2.47;;;;;;;14.00;30.90;95747.16;4922978;29;20044;-74
2023/06/06 04:46:52;;;;;;;3.63;2.38;;;;;;;14.20;30.69;95744.56;4923198;29;20043;-73
2023/06/06 04:49:19;;;;;;;2.45;2.20;;;;;;;14.40;30.59;95750.03;4917472;29;20031;-73
2023/06/06 04:51:44;;;;;;;5.03;2.78;;;;;;;14.53;30.49;95743.91;4904420;29;20094;-73
2023/06/06 04:54:10;;;;;;;4.40;2.30;;;;;;;14.62;30.20;95741.06;4923618;29;20036;-73
2023/06/06 04:56:38;;;;;;;5.55;2.40;;;;;;;14.75;30.07;95743.78;4933513;29;20035;-73
2023/06/06 04:59:06;;;;;;;3.92;2.30;;;;;;;14.96;29.52;95745.50;4909365;29;20050;-73
2023/06/06 05:01:36;;;;;;;3.30;2.33;;;;;;;15.20;29.05;95747.81;4914380;29;20430;-73
2023/06/06 05:04:03;;;;;;;3.75;2.50;;;;;;;15.26;29.03;95747.00;4912623;29;20423;-73
2023/06/06 05:06:31;;;;;;;2.92;2.55;;;;;;;15.37;29.00;95742.91;4930792;29;20241;-73
2023/06/06 05:09:00;;;;;;;3.38;2.30;;;;;;;15.53;29.01;95751.56;4923467;29;20051;-73
2023/06/06 05:11:26;;;;;;;3.53;2.45;;;;;;;15.63;28.96;95754.66;4922179;29;20696;-73
2023/06/06 05:13:52;;;;;;;3.67;2.50;;;;;;;15.78;28.90;95751.78;4922094;29;20024;-73
2023/06/06 05:16:17;;;;;;;5.38;2.40;;;;;;;16.03;28.34;95751.13;4921222;29;20091;-73
2023/06/06 05:18:42;;;;;;;3.00;2.55;;;;;;;16.26;28.19;95749.81;4922811;29;20066;-73
2023/06/06 05:21:08;;;;;;;3.70;2.33;;;;;;;16.37;27.95;95748.38;4922955;29;20091;-73
2023/06/06 05:23:33;;;;;;;2.65;2.42;;;;;;;16.47;28.08;95751.44;4921527;29;20036;-73
2023/06/06 05:25:59;;;;;;;4.10;2.30;;;;;;;16.74;27.59;95748.66;4909103;29;20483;-73
2023/06/06 05:28:25;;;;;;;2.92;2.30;;;;;;;16.87;27.57;95745.03;4909902;29;20399;-73
2023/06/06 05:30:55;;;;;;;2.92;2.50;;;;;;;16.99;27.46;95750.56;4908220;29;20047;-73
2023/06/06 05:33:21;;;;;;;5.55;2.45;;;;;;;17.32;27.33;95753.28;4922948;29;20040;-73
2023/06/06 05:35:47;;;;;;;5.47;2.35;;;;;;;17.56;26.55;95753.50;4909948;29;20040;-73
2023/06/06 05:38:12;;;;;;;3.53;2.40;;;;;;;17.80;26.22;95758.09;4928701;29;20118;-73
2023/06/06 05:40:38;;;;;;;2.97;2.30;;;;;;;18.03;26.18;95753.13;4915041;29;20043;-74
2023/06/06 05:43:03;;;;;;;2.63;2.30;;;;;;;18.29;25.82;95752.03;4923903;29;20297;-73
2023/06/06 05:45:29;;;;;;;5.20;2.42;;;;;;;18.35;26.20;95760.28;4924277;29;20516;-71
2023/06/06 05:47:54;;;;;;;5.18;2.30;;;;;;;18.41;25.71;95752.09;4926207;29;20734;-70
2023/06/06 05:50:19;;;;;;;3.83;2.30;;;;;;;18.48;26.88;95760.09;4926148;29;20040;-71
2023/06/06 05:52:45;;;;;;;3.58;2.40;;;;;;;18.69;25.96;95756.16;4926802;29;20116;-71
2023/06/06 05:55:31;;;;;;;5.68;2.83;;;;;;;18.90;25.04;95761.28;4926197;29;20513;-71
2023/06/06 05:57:57;;;;;;;4.68;2.90;;;;;;;18.99;25.10;95757.22;4916912;29;20288;-70
2023/06/06 06:00:27;;;;;;;6.50;2.72;;;;;;;18.94;26.53;95752.50;4930868;29;20761;-71
2023/06/06 06:02:55;;;;;;;3.20;2.55;;;;;;;18.91;26.50;95752.97;4918072;29;20201;-71
2023/06/06 06:05:21;;;;;;;4.07;2.70;;;;;;;18.75;26.86;95753.59;4903442;29;20569;-71
2023/06/06 06:07:47;;;;;;;5.25;2.70;;;;;;;18.74;26.73;95751.94;4926069;29;20040;-71
2023/06/06 06:10:13;;;;;;;3.40;2.40;;;;;;;18.83;26.03;95758.66;4926520;29;20503;-71
2023/06/06 06:12:39;;;;;;;4.22;2.50;;;;;;;19.04;25.35;95756.53;4918130;29;20040;-71
2023/06/06 06:15:05;;;;;;;3.17;2.45;;;;;;;19.16;26.32;95753.88;4925267;29;20043;-71
2023/06/06 06:17:30;;;;;;;3.10;2.33;;;;;;;19.41;23.72;95759.13;4926034;29;20051;-71
2023/06/06 06:19:56;;;;;;;3.90;2.47;;;;;;;19.69;23.82;95759.53;4925616;29;20510;-71
2023/06/06 06:22:22;;;;;;;3.25;2.28;;;;;;;20.08;23.49;95757.22;4926107;29;20035;-71
2023/06/06 06:24:48;;;;;;;7.57;2.70;;;;;;;20.36;22.52;95766.47;4925976;29;20044;-71
2023/06/06 06:27:13;;;;;;;4.50;2.55;;;;;;;20.61;22.07;95759.13;4927520;29;20338;-71
2023/06/06 06:29:38;;;;;;;5.20;2.65;;;;;;;20.72;21.95;95763.72;4925849;29;20265;-71
2023/06/06 06:32:04;;;;;;;9.32;2.60;;;;;;;20.68;22.35;95765.25;4925318;29;20044;-70
2023/06/06 06:34:29;;;;;;;5.82;2.70;;;;;;;20.75;22.26;95759.72;4925205;29;20031;-71
2023/06/06 06:36:55;;;;;;;3.90;2.78;;;;;;;21.07;22.24;95761.94;4925753;29;20031;-71
2023/06/06 06:39:20;;;;;;;3.20;2.50;;;;;;;21.37;21.63;95758.16;4925671;29;20039;-71
2023/06/06 06:41:46;;;;;;;5.13;3.00;;;;;;;21.64;22.65;95767.53;4915570;29;20038;-71
2023/06/06 06:44:11;;;;;;;4.70;2.65;;;;;;;21.94;21.53;95771.00;4924897;29;20040;-71
2023/06/06 06:46:37;;;;;;;4.43;2.88;;;;;;;22.00;21.05;95764.59;4924874;29;20522;-71
2023/06/06 06:49:02;;;;;;;4.60;2.60;;;;;;;21.98;22.17;95774.84;4925535;29;20222;-71
2023/06/06 06:51:29;;;;;;;4.22;2.35;;;;;;;22.12;21.16;95775.31;4925029;29;20047;-71
2023/06/06 06:53:57;;;;;;;;;;;;;;;22.30;21.67;95776.97;4926017;29;20051;-71
2023/06/06 06:56:24;;;;;;;6.13;2.97;;;;;;;22.36;20.75;95780.53;4923961;29;20195;-71
2023/06/06 06:58:49;;;;;;;3.63;2.60;;;;;;;22.11;21.02;95779.94;4927741;29;20059;-71
2023/06/06 07:01:17;;;;;;;3.30;2.55;;;;;;;22.34;20.21;95778.09;4925140;29;20062;-71
2023/06/06 07:03:44;;;;;;;5.68;2.67;;;;;;;22.62;20.61;95778.19;4925112;29;20039;-71
2023/06/06 07:06:10;;;;;;;7.35;3.03;;;;;;;22.72;20.21;95788.34;4925374;29;20129;-71
2023/06/06 07:08:36;;;;;;;3.87;2.57;;;;;;;22.63;19.97;95786.09;4924675;29;20570;-71
2023/06/06 07:11:02;;;;;;;7.20;2.47;;;;;;;22.61;20.44;95784.72;4924083;29;20291;-71
2023/06/06 07:13:28;;;;;;;4.43;2.53;;;;;;;22.63;20.76;95786.09;4925507;29;20118;-71
2023/06/06 07:15:53;;;;;;;5.32;2.30;;;;;;;22.66;19.68;95791.03;4924543;29;20538;-71
2023/06/06 07:18:19;;;;;;;3.33;2.38;;;;;;;22.56;19.49;95782.75;4925570;29;20036;-71
2023/06/06 07:20:45;;;;;;;4.35;2.47;;;;;;;22.23;19.50;95787.16;4924517;29;20039;-71
2023/06/06 07:23:11;;;;;;;3.83;2.70;;;;;;;22.31;19.00;95791.31;4924652;29;20050;-71
2023/06/06 07:25:36;;;;;;;5.50;2.60;;;;;;;22.40;18.74;95779.78;4924272;29;20040;-71
2023/06/06 07:28:02;;;;;;;8.18;2.80;;;;;;;22.70;18.96;95787.81;4924447;29;20399;-71
2023/06/06 07:30:27;;;;;;;10.00;2.60;;;;;;;22.81;20.08;95784.16;4924291;29;20032;-72
2023/06/06 07:32:52;;;;;;;4.32;2.33;;;;;;;22.88;20.39;95778.53;4925195;29;20570;-71
2023/06/06 07:35:21;;;;;;;5.00;2.65;;;;;;;22.50;18.98;95776.41;4924321;29;20039;-71
2023/06/06 07:37:46;;;;;;;5.25;2.42;;;;;;;22.57;19.44;95780.84;4905353;29;20537;-71
2023/06/06 07:40:12;;;;;;;6.80;2.60;;;;;;;22.59;18.86;95776.81;4910445;29;20028;-71
2023/06/06 07:42:38;;;;;;;6.82;2.70;;;;;;;22.95;17.80;95776.44;4924389;29;20106;-71
2023/06/06 07:45:03;;;;;;;4.40;2.50;;;;;;;22.84;18.07;95780.91;4913099;29;20063;-72
2023/06/06 07:47:29;;;;;;;2.95;2.50;;;;;;;23.05;18.26;95781.16;4920670;29;20035;-72
2023/06/06 07:49:54;;;;;;;4.35;2.30;;;;;;;23.26;19.22;95775.97;4936837;29;20032;-72
2023/06/06 07:52:20;;;;;;;3.40;2.40;;;;;;;23.39;17.87;95770.09;4924145;29;20732;-72
2023/06/06 07:54:45;;;;;;;3.70;2.40;;;;;;;23.66;16.87;95771.97;4923428;29;20487;-72
2023/06/06 07:57:16;;;;;;;4.30;2.40;;;;;;;23.58;17.46;95774.34;4910462;29;20046;-72
2023/06/06 07:59:42;;;;;;;5.70;2.50;;;;;;;23.90;17.87;95777.06;4930085;29;20039;-72
2023/06/06 08:02:07;;;;;;;5.63;2.50;;;;;;;23.67;18.49;95776.34;4916672;29;20130;-72
2023/06/06 08:04:32;;;;;;;3.67;2.60;;;;;;;23.69;18.10;95776.88;4916095;29;20495;-72
2023/06/06 08:06:58;;;;;;;5.18;2.40;;;;;;;23.98;17.94;95774.94;4924071;29;20039;-72
2023/06/06 08:09:23;;;;;;;10.13;2.75;;;;;;;23.73;18.06;95779.09;4923256;29;20519;-72
2023/06/06 08:11:49;;;;;;;3.70;2.40;;;;;;;23.99;18.51;95776.59;4923792;29;20566;-73
2023/06/06 08:14:14;;;;;;;13.02;2.88;;;;;;;23.99;19.24;95782.03;4923855;29;20054;-71
2023/06/06 08:16:41;;;;;;;3.97;2.33;;;;;;;24.31;18.64;95775.72;4923499;29;20459;-72
2023/06/06 08:19:06;;;;;;;5.60;2.63;;;;;;;24.47;17.71;95776.63;4923551;29;20178;-72
2023/06/06 08:21:32;;;;;;;3.53;2.40;;;;;;;24.53;17.28;95782.91;4924140;29;20036;-72
2023/06/06 08:23:57;;;;;;;8.20;2.70;;;;;;;24.60;17.52;95777.25;4922919;29;20048;-72
2023/06/06 08:26:25;;;;;;;7.22;2.50;;;;;;;24.72;17.66;95772.41;4923439;29;20086;-73
2023/06/06 08:28:51;;;;;;;2.50;2.30;;;;;;;24.73;17.30;95774.03;4912134;29;20115;-72
2023/06/06 08:31:16;;;;;;;4.50;2.60;;;;;;;24.88;17.33;95777.91;4923441;29;20043;-72
2023/06/06 08:33:42;;;;;;;5.07;2.38;;;;;;;24.69;17.51;95773.75;4923708;29;20039;-72
2023/06/06 08:36:08;;;;;;;8.65;2.60;;;;;;;24.93;17.82;95772.50;4916304;29;20455;-72
2023/06/06 08:38:33;;;;;;;6.63;2.40;;;;;;;24.81;17.14;95775.44;4922730;29;20034;-72
2023/06/06 08:40:58;;;;;;;5.17;2.70;;;;;;;25.02;16.02;95775.53;4923866;29;20024;-72
2023/06/06 08:43:24;;;;;;;4.43;2.57;;;;;;;24.86;17.43;95774.63;4900009;29;20071;-72
2023/06/06 08:45:53;;;;;;;4.20;2.40;;;;;;;24.91;17.19;95778.19;4913798;29;20035;-71
2023/06/06 08:48:18;;;;;;;2.50;2.30;;;;;;;25.02;16.95;95772.78;4923248;29;20047;-71
2023/06/06 08:50:44;;;;;;;2.67;2.30;;;;;;;25.35;17.30;95770.66;4923300;29;20443;-72
2023/06/06 08:53:11;;;;;;;2.47;2.22;;;;;;;25.71;16.84;95776.19;4914366;29;20700;-71
2023/06/06 08:55:37;;;;;;;6.60;2.42;;;;;;;25.68;16.51;95770.47;4923263;29;20244;-71
2023/06/06 08:58:03;;;;;;;2.47;2.27;;;;;;;25.71;16.81;95776.19;4923511;29;20047;-71
2023/06/06 09:00:29;;;;;;;3.50;2.70;;;;;;;25.75;16.20;95764.72;4923228;29;20048;-71
2023/06/06 09:02:54;;;;;;;7.27;2.53;;;;;;;25.90;16.53;95772.09;4901809;29;20283;-71
2023/06/06 09:05:20;;;;;;;4.27;2.80;;;;;;;26.24;14.14;95774.25;4886546;29;20460;-71
2023/06/06 09:07:49;;;;;;;4.40;2.30;;;;;;;26.39;14.49;95775.31;4922637;29;20378;-71
2023/06/06 09:10:15;;;;;;;3.17;2.70;;;;;;;26.59;14.42;95777.19;4922648;29;20153;-67
2023/06/06 09:12:45;;;;;;;5.00;2.50;;;;;;;26.87;14.36;95783.06;4920645;29;20628;-68
2023/06/06 09:15:10;;;;;;;5.03;2.60;;;;;;;26.90;14.12;95779.78;4921296;29;20134;-68
2023/06/06 09:17:40;;;;;;;6.33;2.73;;;;;;;27.22;14.01;95785.94;4923414;29;20126;-67
2023/06/06 09:20:12;;;;;;;6.90;2.70;;;;;;;27.49;12.99;95774.53;4924655;29;20526;-67
2023/06/06 09:22:42;;;;;;;4.50;2.60;;;;;;;27.61;15.09;95773.38;4926409;29;20525;-68
2023/06/06 09:25:41;;;;;;;3.75;2.65;;;;;;;27.16;14.52;95779.69;4926579;29;20095;-68
2023/06/06 09:28:07;;;;;;;4.28;2.50;;;;;;;27.69;14.61;95780.16;4918607;29;20103;-68
2023/06/06 09:30:32;;;;;;;3.37;2.50;;;;;;;27.94;14.90;95775.59;4925929;29;20027;-68
2023/06/06 09:33:02;;;;;;;8.10;2.80;;;;;;;28.07;13.73;95785.06;4927309;29;20345;-68
2023/06/06 09:35:31;;;;;;;4.43;2.53;;;;;;;28.35;13.69;95783.41;4926431;29;20420;-68
2023/06/06 09:38:05;;;;;;;5.20;2.60;;;;;;;28.44;13.27;95782.78;4919957;29;20051;-68
2023/06/06 09:40:30;;;;;;;6.65;2.67;;;;;;;28.45;13.66;95776.22;4926323;29;20539;-68
2023/06/06 09:42:56;;;;;;;3.60;2.33;;;;;;;28.51;13.90;95773.13;4926045;29;20040;-68
2023/06/06 09:45:21;;;;;;;5.13;2.60;;;;;;;28.55;13.08;95776.09;4911090;29;20295;-68
2023/06/06 09:47:47;;;;;;;3.73;2.57;;;;;;;28.88;12.68;95778.19;4925187;29;20043;-68
2023/06/06 09:50:14;;;;;;;4.75;2.67;;;;;;;28.98;13.51;95775.31;4926273;29;20059;-68
2023/06/06 09:52:39;;;;;;;;;;;;;;;29.27;12.77;95771.63;4926603;29;20066;-68
2023/06/06 09:55:05;;;;;;;;;;;;;;;28.91;13.68;95780.34;4925708;29;20233;-68
2023/06/06 09:57:30;;;;;;;3.07;2.43;;;;;;;28.21;12.44;95786.00;4925431;29;19961;-68
2023/06/06 09:59:56;;;;;;;4.93;2.60;;;;;;;28.74;12.30;95767.94;4910007;29;20153;-68
2023/06/06 10:02:22;;;;;;;5.50;2.50;;;;;;;28.88;12.49;95778.19;4906934;29;20142;-69
2023/06/06 10:04:48;;;;;;;3.58;2.80;;;;;;;28.83;13.34;95772.78;4926377;29;20107;-68
2023/06/06 10:07:14;;;;;;;5.77;2.90;;;;;;;29.07;13.20;95770.00;4913502;29;20173;-68
2023/06/06 10:09:40;;;;;;;;;;;;;;;28.88;13.24;95778.19;4926987;29;20122;-68
2023/06/06 10:12:05;;;;;;;;;;;;;;;29.07;13.11;95770.00;4925184;29;20005;-68
2023/06/06 10:14:31;;;;;;;5.23;2.93;;;;;;;29.14;12.17;95764.13;4925370;29;19958;-68
2023/06/06 10:16:56;;;;;;;4.00;2.70;;;;;;;29.00;12.63;95778.59;4928097;29;20550;-68
2023/06/06 10:19:22;;;;;;;5.93;3.20;;;;;;;29.16;12.24;95768.22;4925743;29;20051;-68
2023/06/06 10:21:47;;;;;;;6.67;3.00;;;;;;;29.48;12.21;95765.88;4926032;29;20120;-68
2023/06/06 10:24:13;;;;;;;4.60;3.22;;;;;;;29.59;13.54;95760.19;4925594;29;20054;-68
2023/06/06 10:26:58;;;;;;;3.17;2.53;;;;;;;29.35;13.30;95761.94;4925124;29;20418;-68
2023/06/06 10:30:01;;;;;;;5.72;3.17;;;;;;;29.45;12.90;95763.72;4914786;29;20040;-69
2023/06/06 10:32:47;;;;;;;4.45;3.00;;;;;;;29.50;12.95;95760.09;4910620;29;20043;-69
2023/06/06 10:35:12;;;;;;;4.25;3.03;;;;;;;28.74;13.10;95758.91;4912781;29;20043;-68
2023/06/06 10:37:38;;;;;;;5.27;3.50;;;;;;;29.18;12.40;95757.00;4929640;29;20455;-68
2023/06/06 10:40:05;;;;;;;7.83;3.60;;;;;;;28.70;13.98;95763.34;4925410;29;20251;-68
2023/06/06 10:42:37;;;;;;;;;;;;;;;29.20;13.22;95754.78;4925572;29;20044;-68
2023/06/06 10:45:03;;;;;;;4.43;2.85;;;;;;;29.56;12.69;95753.41;4924711;29;19922;-68
2023/06/06 10:47:35;;;;;;;3.22;2.58;;;;;;;29.88;11.63;95738.09;4925190;29;20043;-69
2023/06/06 10:50:12;;;;;;;7.60;3.08;;;;;;;29.39;13.33;95745.72;4912719;29;20027;-69
2023/06/06 10:52:45;;;;;;;3.58;2.90;;;;;;;29.62;12.55;95754.94;4923868;29;20166;-69
2023/06/06 10:55:20;;;;;;;8.30;3.20;;;;;;;29.97;13.33;95749.16;4924780;29;20047;-68
2023/06/06 10:58:13;;;;;;;7.20;3.13;;;;;;;30.07;13.67;95745.44;4925487;29;20083;-68
2023/06/06 11:00:50;;;;;;;5.63;3.65;;;;;;;30.41;12.28;95751.69;4927560;29;20095;-68
2023/06/06 11:03:19;;;;;;;4.35;2.88;;;;;;;31.04;12.09;95751.25;4922690;29;20040;-68
2023/06/06 11:05:59;;;;;;;4.57;2.88;;;;;;;30.96;11.39;95750.06;4925252;29;20040;-68
2023/06/06 11:08:53;;;;;;;3.38;2.60;;;;;;;31.51;10.86;95745.53;4922916;29;20040;-68
2023/06/06 11:11:26;;;;;;;5.22;3.55;;;;;;;31.54;12.04;95750.41;4923775;29;20043;-68
2023/06/06 11:13:53;;;;;;;3.67;3.33;;;;;;;31.64;11.18;95745.81;4924943;29;20653;-68
2023/06/06 11:16:40;;;;;;;5.40;3.65;;;;;;;31.98;11.20;95736.16;4907934;29;20534;-68
2023/06/06 11:19:11;;;;;;;4.47;2.88;;;;;;;32.39;11.15;95737.00;4924350;29;20039;-68
2023/06/06 11:21:37;;;;;;;4.88;3.60;;;;;;;32.31;10.90;95746.84;4923393;29;20155;-68
2023/06/06 11:24:02;;;;;;;;;;;;;;;32.82;10.38;95742.97;4924940;29;20131;-68
2023/06/06 11:26:28;;;;;;;7.88;3.72;;;;;;;32.35;11.26;95747.84;4924352;29;19915;-66
2023/06/06 11:28:53;;;;;;;;;;;;;;;32.22;11.47;95754.28;4911852;29;20333;-65
2023/06/06 11:31:20;;;;;;;8.32;3.50;;;;;;;31.63;12.20;95745.00;4923079;29;20382;-66
2023/06/06 11:33:46;;;;;;;5.22;3.63;;;;;;;31.76;12.37;95747.97;4901350;29;20028;-66